createdAt,value
2017-09-19T00:01:51.150Z,4.53
2017-09-19T00:04:17.512Z,3.80
2017-09-19T00:06:43.961Z,4.57
2017-09-19T00:09:10.471Z,3.73
2017-09-19T00:11:36.933Z,3.90
2017-09-19T00:14:03.357Z,3.87
2017-09-19T00:16:29.810Z,3.63
2017-09-19T00:18:57.015Z,4.70
2017-09-19T00:21:23.422Z,4.70
2017-09-19T00:23:49.860Z,4.67
2017-09-19T00:26:16.291Z,4.57
2017-09-19T00:28:42.771Z,4.40
2017-09-19T00:31:09.202Z,4.63
2017-09-19T00:33:35.640Z,3.80
2017-09-19T00:36:02.275Z,2.90
2017-09-19T00:38:28.756Z,3.70
2017-09-19T00:40:55.267Z,3.37
2017-09-19T00:43:22.462Z,3.30
2017-09-19T00:45:48.931Z,2.83
2017-09-19T00:48:15.363Z,3.37
2017-09-19T00:50:41.790Z,4.27
2017-09-19T00:53:08.239Z,4.47
2017-09-19T00:55:35.399Z,3.70
2017-09-19T00:58:02.567Z,3.47
2017-09-19T01:00:28.978Z,3.80
2017-09-19T01:02:56.399Z,3.00
2017-09-19T01:05:22.844Z,3.30
2017-09-19T01:07:49.326Z,3.30
2017-09-19T01:10:15.721Z,3.20
2017-09-19T01:12:43.014Z,3.30
2017-09-19T01:15:09.456Z,3.90
2017-09-19T01:17:36.023Z,4.10
2017-09-19T01:20:02.508Z,3.07
2017-09-19T01:22:28.947Z,2.90
2017-09-19T01:24:55.415Z,3.73
2017-09-19T01:27:21.839Z,2.87
2017-09-19T01:29:48.242Z,3.10
2017-09-19T01:32:14.819Z,3.03
2017-09-19T01:34:41.223Z,3.27
2017-09-19T01:37:07.675Z,3.37
2017-09-19T01:39:39.103Z,2.93
2017-09-19T01:42:05.571Z,2.83
2017-09-19T01:44:32.763Z,3.23
2017-09-19T01:46:59.159Z,3.07
2017-09-19T01:49:25.591Z,3.40
2017-09-19T01:51:52.035Z,4.23
2017-09-19T01:54:18.480Z,3.70
2017-09-19T01:56:45.623Z,3.83
2017-09-19T01:59:12.826Z,4.03
2017-09-19T02:01:39.235Z,3.60
2017-09-19T02:04:05.686Z,3.73
2017-09-19T02:06:32.106Z,4.17
2017-09-19T02:08:58.556Z,3.70
2017-09-19T02:11:24.996Z,4.13
2017-09-19T02:13:51.419Z,4.13
2017-09-19T02:16:17.858Z,3.40
2017-09-19T02:18:44.423Z,3.83
2017-09-19T02:21:10.862Z,3.97
2017-09-19T02:23:37.271Z,3.93
2017-09-19T02:26:03.679Z,3.33
2017-09-19T02:28:30.151Z,3.40
2017-09-19T02:30:56.567Z,3.67
2017-09-19T02:33:23.027Z,3.40
2017-09-19T02:35:49.483Z,3.60
2017-09-19T02:38:15.931Z,4.23
2017-09-19T02:40:42.343Z,3.73
2017-09-19T02:43:08.798Z,3.70
2017-09-19T02:45:35.981Z,3.60
2017-09-19T02:48:02.622Z,3.50
2017-09-19T02:50:29.039Z,3.27
2017-09-19T02:52:55.471Z,3.97
2017-09-19T02:55:21.922Z,3.60
2017-09-19T02:57:48.367Z,4.10
2017-09-19T03:00:15.666Z,3.90
2017-09-19T03:02:42.359Z,4.00
2017-09-19T03:05:08.812Z,4.00
2017-09-19T03:07:36.014Z,4.13
2017-09-19T03:10:02.435Z,3.97
2017-09-19T03:12:28.891Z,3.50
2017-09-19T03:14:55.342Z,4.20
2017-09-19T03:17:21.755Z,4.20
2017-09-19T03:19:48.287Z,5.33
2017-09-19T03:22:14.711Z,4.43
2017-09-19T03:24:41.175Z,4.03
2017-09-19T03:27:07.635Z,5.03
2017-09-19T03:29:34.874Z,4.03
2017-09-19T03:32:02.050Z,4.40
2017-09-19T03:34:28.492Z,4.33
2017-09-19T03:36:55.038Z,4.50
2017-09-19T03:39:21.461Z,4.80
2017-09-19T03:41:47.927Z,4.33
2017-09-19T03:44:14.382Z,4.13
2017-09-19T03:46:40.848Z,4.07
2017-09-19T03:49:07.330Z,4.50
2017-09-19T03:51:40.358Z,4.57
2017-09-19T03:54:06.808Z,4.40
2017-09-19T03:56:33.243Z,4.40
2017-09-19T03:58:59.700Z,4.50
2017-09-19T04:01:26.132Z,4.60
2017-09-19T04:03:52.542Z,3.23
2017-09-19T04:06:19.027Z,4.17
2017-09-19T04:08:45.472Z,3.70
2017-09-19T04:11:12.663Z,2.60
2017-09-19T04:13:39.122Z,3.67
2017-09-19T04:16:05.523Z,2.77
2017-09-19T04:18:32.027Z,3.33
2017-09-19T04:20:59.203Z,3.47
2017-09-19T04:23:25.631Z,4.20
2017-09-19T04:25:52.075Z,4.37
2017-09-19T04:28:18.553Z,4.60
2017-09-19T04:30:45.018Z,4.23
2017-09-19T04:33:11.484Z,4.10
2017-09-19T04:35:37.968Z,4.67
2017-09-19T04:38:05.115Z,3.57
2017-09-19T04:40:31.584Z,3.50
2017-09-19T04:42:58.079Z,3.60
2017-09-19T04:45:24.515Z,3.33
2017-09-19T04:47:51.188Z,3.43
2017-09-19T04:50:17.595Z,4.00
2017-09-19T04:52:44.796Z,3.60
2017-09-19T04:55:11.243Z,4.37
2017-09-19T04:57:37.672Z,4.67
2017-09-19T05:00:04.180Z,3.83
2017-09-19T05:02:30.655Z,3.83
2017-09-19T05:04:57.078Z,5.10
2017-09-19T05:07:23.530Z,4.20
2017-09-19T05:09:50.960Z,5.00
2017-09-19T05:12:17.431Z,4.80
2017-09-19T05:14:44.598Z,3.77
2017-09-19T05:17:11.057Z,3.90
2017-09-19T05:19:37.508Z,3.80
2017-09-19T05:22:03.942Z,4.07
2017-09-19T05:24:30.369Z,3.73
2017-09-19T05:26:57.463Z,3.97
2017-09-19T05:29:24.626Z,4.20
2017-09-19T05:31:51.234Z,3.80
2017-09-19T05:34:17.688Z,4.17
2017-09-19T05:36:44.854Z,3.37
2017-09-19T05:39:11.375Z,3.90
2017-09-19T05:41:38.537Z,3.63
2017-09-19T05:44:05.016Z,4.07
2017-09-19T05:46:31.439Z,4.10
2017-09-19T05:48:57.883Z,4.40
2017-09-19T05:54:13.136Z,4.97
2017-09-19T05:56:39.576Z,4.47
2017-09-19T05:59:20.942Z,4.67
2017-09-19T06:01:47.441Z,3.87
2017-09-19T06:04:14.770Z,4.33
2017-09-19T06:06:41.371Z,4.50
2017-09-19T06:09:20.070Z,3.83
2017-09-19T06:11:47.259Z,5.27
2017-09-19T06:14:13.692Z,5.70
2017-09-19T06:16:40.131Z,5.10
2017-09-19T06:19:06.673Z,4.80
2017-09-19T06:21:33.103Z,4.50
2017-09-19T06:23:59.562Z,4.40
2017-09-19T06:26:26.746Z,4.20
2017-09-19T06:28:53.191Z,5.00
2017-09-19T06:31:19.627Z,4.67
2017-09-19T06:33:46.115Z,5.00
2017-09-19T06:36:12.539Z,5.60
2017-09-19T06:38:38.995Z,5.50
2017-09-19T06:41:06.315Z,5.37
2017-09-19T06:43:32.762Z,7.03
2017-09-19T06:45:59.215Z,5.77
2017-09-19T06:48:26.419Z,5.00
2017-09-19T06:50:52.851Z,4.40
2017-09-19T06:53:19.261Z,5.00
2017-09-19T06:55:45.721Z,5.70
2017-09-19T06:58:12.134Z,4.90
2017-09-19T07:00:38.641Z,4.27
2017-09-19T07:03:05.171Z,4.70
2017-09-19T07:05:32.383Z,5.07
2017-09-19T07:07:58.887Z,4.53
2017-09-19T07:10:25.319Z,4.13
2017-09-19T07:12:51.758Z,4.50
2017-09-19T07:15:18.172Z,4.80
2017-09-19T07:17:44.630Z,4.30
2017-09-19T07:20:11.328Z,4.20
2017-09-19T07:22:37.827Z,4.40
2017-09-19T07:25:04.296Z,4.40
2017-09-19T07:27:30.803Z,4.53
2017-09-19T07:29:58.027Z,3.70
2017-09-19T07:32:24.487Z,4.37
2017-09-19T07:34:50.902Z,3.40
2017-09-19T07:37:17.390Z,3.27
2017-09-19T07:39:43.802Z,3.23
2017-09-19T07:42:11.079Z,3.10
2017-09-19T07:44:37.531Z,3.37
2017-09-19T07:47:04.042Z,3.47
2017-09-19T07:49:30.491Z,3.80
2017-09-19T07:51:56.926Z,3.50
2017-09-19T07:54:23.370Z,3.50
2017-09-19T07:56:49.803Z,3.13
2017-09-19T07:59:16.263Z,3.50
2017-09-19T08:01:42.762Z,3.63
2017-09-19T08:04:09.222Z,3.53
2017-09-19T08:06:35.692Z,3.37
2017-09-19T08:09:02.860Z,3.90
2017-09-19T08:11:29.320Z,3.60
2017-09-19T08:13:55.731Z,4.83
2017-09-19T08:16:22.199Z,4.10
2017-09-19T08:18:48.839Z,4.70
2017-09-19T08:21:15.314Z,4.30
2017-09-19T08:23:41.764Z,4.60
2017-09-19T08:26:08.298Z,4.80
2017-09-19T08:28:34.775Z,4.60
2017-09-19T08:31:01.218Z,5.20
2017-09-19T08:33:27.672Z,5.50
2017-09-19T08:35:55.128Z,4.50
2017-09-19T08:38:22.303Z,4.20
2017-09-19T08:40:48.822Z,4.90
2017-09-19T08:43:15.298Z,4.37
2017-09-19T08:45:41.764Z,4.70
2017-09-19T08:48:08.395Z,4.53
2017-09-19T08:50:34.906Z,4.20
2017-09-19T08:53:01.371Z,3.80
2017-09-19T08:55:28.571Z,3.70
2017-09-19T08:57:55.011Z,2.90
2017-09-19T09:00:21.497Z,3.10
2017-09-19T09:02:48.665Z,3.67
2017-09-19T09:05:15.087Z,3.93
2017-09-19T09:07:42.295Z,3.30
2017-09-19T09:10:08.767Z,3.07
2017-09-19T09:12:36.019Z,3.10
2017-09-19T09:15:03.211Z,3.00
2017-09-19T09:17:29.670Z,3.27
2017-09-19T09:19:56.159Z,3.33
2017-09-19T09:22:22.771Z,2.70
2017-09-19T09:24:49.956Z,2.57
2017-09-19T09:27:16.424Z,2.33
2017-09-19T09:29:42.844Z,2.57
2017-09-19T09:32:09.276Z,2.87
2017-09-19T09:34:35.711Z,2.70
2017-09-19T09:37:02.168Z,3.20
2017-09-19T09:39:29.358Z,3.80
2017-09-19T09:41:55.798Z,3.50
2017-09-19T09:44:22.452Z,3.30
2017-09-19T09:46:48.872Z,2.77
2017-09-19T09:49:15.327Z,3.40
2017-09-19T09:51:41.770Z,3.30
2017-09-19T09:54:08.228Z,3.20
2017-09-19T09:56:34.657Z,3.00
2017-09-19T09:59:01.852Z,2.80
2017-09-19T10:01:28.352Z,2.50
2017-09-19T10:03:55.503Z,2.43
2017-09-19T10:06:22.757Z,2.83
2017-09-19T10:08:49.903Z,2.60
2017-09-19T10:11:17.092Z,2.33
2017-09-19T10:13:43.542Z,2.37
2017-09-19T10:16:10.049Z,3.23
2017-09-19T10:18:36.490Z,2.90
2017-09-19T10:21:02.960Z,3.20
2017-09-19T10:23:29.412Z,2.70
2017-09-19T10:25:55.866Z,3.40
2017-09-19T10:28:23.031Z,2.90
2017-09-19T10:30:49.475Z,3.00
2017-09-19T10:33:15.926Z,3.10
2017-09-19T10:35:42.426Z,3.07
2017-09-19T10:38:08.882Z,2.87
2017-09-19T10:40:35.292Z,3.20
2017-09-19T10:43:01.751Z,2.37
2017-09-19T10:45:28.259Z,2.30
2017-09-19T10:47:54.799Z,3.03
2017-09-19T10:50:21.236Z,2.80
2017-09-19T10:52:47.696Z,3.00
2017-09-19T10:55:14.272Z,2.80
2017-09-19T10:57:41.445Z,2.90
2017-09-19T11:00:07.906Z,2.90
2017-09-19T11:02:34.333Z,2.70
2017-09-19T11:05:00.923Z,2.77
2017-09-19T11:07:28.112Z,2.67
2017-09-19T11:09:54.534Z,2.70
2017-09-19T11:12:20.978Z,3.13
2017-09-19T11:14:47.395Z,2.47
2017-09-19T11:17:13.807Z,2.67
2017-09-19T11:19:41.064Z,2.60
2017-09-19T11:22:08.234Z,2.57
2017-09-19T11:24:34.682Z,1.70
2017-09-19T11:27:01.117Z,2.93
2017-09-19T11:29:27.632Z,2.40
2017-09-19T11:31:54.074Z,1.60
2017-09-19T11:34:20.534Z,3.00
2017-09-19T11:36:46.970Z,3.10
2017-09-19T11:39:13.403Z,3.47
2017-09-19T11:41:39.836Z,3.93
2017-09-19T11:44:06.258Z,3.10
2017-09-19T11:46:32.703Z,3.40
2017-09-19T11:48:59.136Z,3.40
2017-09-19T11:51:25.604Z,2.10
2017-09-19T11:53:52.836Z,2.60
2017-09-19T11:56:19.294Z,2.73
2017-09-19T11:58:46.532Z,3.03
2017-09-19T12:01:13.688Z,3.00
2017-09-19T12:03:40.904Z,3.80
2017-09-19T12:06:07.378Z,2.70
2017-09-19T12:08:34.734Z,3.00
2017-09-19T12:11:01.342Z,3.47
2017-09-19T12:13:27.755Z,2.93
2017-09-19T12:15:54.206Z,3.20
2017-09-19T12:18:20.691Z,2.90
2017-09-19T12:20:47.148Z,2.80
2017-09-19T12:23:13.574Z,2.53
2017-09-19T12:25:40.053Z,2.73
2017-09-19T12:28:07.269Z,3.43
2017-09-19T12:30:33.691Z,2.20
2017-09-19T12:33:00.163Z,2.57
2017-09-19T12:35:26.588Z,2.33
2017-09-19T12:37:53.789Z,1.90
2017-09-19T12:40:20.271Z,2.20
2017-09-19T12:42:48.210Z,9.70
2017-09-19T12:45:14.890Z,5.93
2017-09-19T12:47:42.090Z,3.93
2017-09-19T12:50:08.603Z,3.30
2017-09-19T12:52:35.114Z,4.17
2017-09-19T12:55:02.290Z,4.10
2017-09-19T12:57:28.950Z,5.90
2017-09-19T12:59:56.320Z,4.60
2017-09-19T13:02:22.881Z,4.53
2017-09-19T13:04:49.327Z,4.37
2017-09-19T13:07:16.546Z,3.80
2017-09-19T13:09:43.084Z,3.20
2017-09-19T13:12:09.533Z,4.07
2017-09-19T13:14:36.005Z,3.97
2017-09-19T13:17:02.482Z,3.67
2017-09-19T13:19:28.883Z,4.60
2017-09-19T13:21:55.344Z,4.40
2017-09-19T13:24:21.758Z,4.40
2017-09-19T13:26:48.268Z,4.53
2017-09-19T13:29:14.699Z,4.60
2017-09-19T13:34:42.722Z,3.40
2017-09-19T13:37:09.194Z,3.77
2017-09-19T13:39:36.420Z,3.60
2017-09-19T13:42:02.962Z,3.20
2017-09-19T13:44:29.447Z,2.20
2017-09-19T13:46:55.939Z,1.13
2017-09-19T13:49:22.440Z,1.73
2017-09-19T13:51:48.886Z,2.20
2017-09-19T13:54:15.322Z,1.90
2017-09-19T13:56:41.919Z,1.93
2017-09-19T13:59:08.495Z,2.00
2017-09-19T14:01:35.019Z,1.70
2017-09-19T14:04:01.467Z,1.67
2017-09-19T14:06:27.904Z,1.23
2017-09-19T14:08:54.380Z,1.60
2017-09-19T14:11:20.870Z,1.30
2017-09-19T14:13:48.238Z,1.70
2017-09-19T14:16:15.420Z,2.10
2017-09-19T14:18:41.881Z,2.37
2017-09-19T14:21:08.343Z,2.00
2017-09-19T14:23:34.830Z,2.50
2017-09-19T14:26:01.308Z,2.33
2017-09-19T14:28:27.763Z,3.30
2017-09-19T14:30:54.959Z,3.87
2017-09-19T14:33:21.538Z,3.83
2017-09-19T14:35:48.867Z,4.10
2017-09-19T14:38:15.304Z,4.10
2017-09-19T14:40:41.723Z,3.90
2017-09-19T14:43:08.185Z,4.30
2017-09-19T14:45:35.386Z,4.10
2017-09-19T14:48:01.859Z,4.37
2017-09-19T14:50:28.347Z,4.30
2017-09-19T14:52:54.964Z,4.27
2017-09-19T14:55:22.168Z,3.90
2017-09-19T14:57:48.637Z,3.80
2017-09-19T15:00:15.802Z,4.10
2017-09-19T15:02:42.994Z,3.83
2017-09-19T15:05:09.474Z,4.50
2017-09-19T15:07:36.749Z,3.90
2017-09-19T15:10:03.222Z,4.60
2017-09-19T15:12:29.648Z,4.90
2017-09-19T15:14:56.135Z,5.17
2017-09-19T15:17:23.354Z,4.90
2017-09-19T15:19:49.876Z,8.53
2017-09-19T15:22:16.399Z,13.43
2017-09-19T15:24:42.847Z,9.43
2017-09-19T15:27:09.353Z,5.70
2017-09-19T15:29:35.816Z,4.60
2017-09-19T15:32:02.329Z,4.97
2017-09-19T15:34:28.860Z,5.30
2017-09-19T15:36:55.312Z,4.97
2017-09-19T15:39:21.780Z,6.60
2017-09-19T15:41:49.089Z,6.67
2017-09-19T15:44:15.616Z,5.40
2017-09-19T15:46:42.075Z,5.50
2017-09-19T15:49:08.600Z,7.50
2017-09-19T15:51:35.085Z,6.40
2017-09-19T15:54:01.578Z,6.23
2017-09-19T15:56:28.215Z,6.67
2017-09-19T15:58:54.688Z,5.80
2017-09-19T16:01:21.904Z,5.93
2017-09-19T16:03:48.388Z,7.00
2017-09-19T16:06:14.880Z,6.30
2017-09-19T16:08:42.280Z,8.33
2017-09-19T16:11:08.795Z,7.90
2017-09-19T16:13:35.223Z,5.53
2017-09-19T16:16:02.427Z,6.50
2017-09-19T16:18:28.903Z,7.20
2017-09-19T16:20:56.215Z,6.27
2017-09-19T16:23:22.783Z,7.13
2017-09-19T16:25:50.003Z,7.20
2017-09-19T16:28:16.484Z,6.97
2017-09-19T16:30:42.943Z,6.80
2017-09-19T16:33:09.379Z,7.40
2017-09-19T16:35:35.832Z,7.90
2017-09-19T16:38:03.247Z,7.23
2017-09-19T16:40:29.796Z,7.73
2017-09-19T16:42:56.267Z,6.40
2017-09-19T16:45:22.799Z,8.67
2017-09-19T16:47:49.221Z,10.70
2017-09-19T16:50:15.664Z,7.70
2017-09-19T16:52:42.165Z,8.20
2017-09-19T16:55:08.642Z,8.37
2017-09-19T16:57:35.127Z,8.43
2017-09-19T17:00:01.561Z,9.20
2017-09-19T17:02:28.110Z,9.27
2017-09-19T17:04:54.616Z,8.30
2017-09-19T17:07:21.076Z,5.50
2017-09-19T17:09:47.559Z,6.57
2017-09-19T17:12:14.721Z,6.87
2017-09-19T17:14:41.943Z,6.70
2017-09-19T17:17:09.062Z,6.70
2017-09-19T17:19:35.503Z,7.43
2017-09-19T17:22:01.944Z,8.83
2017-09-19T17:24:28.651Z,9.50
2017-09-19T17:26:55.223Z,17.00
2017-09-19T17:29:21.673Z,40.10
2017-09-19T17:31:48.123Z,19.97
2017-09-19T17:34:14.686Z,20.90
2017-09-19T17:36:41.120Z,14.00
2017-09-19T17:39:07.631Z,10.13
2017-09-19T17:41:34.876Z,12.73
2017-09-19T17:44:03.264Z,17.60
2017-09-19T17:46:30.492Z,21.70
2017-09-19T17:48:56.936Z,19.20
2017-09-19T17:51:24.188Z,14.13
2017-09-19T17:53:51.452Z,10.00
2017-09-19T17:56:18.688Z,10.00
2017-09-19T17:58:45.872Z,9.33
2017-09-19T18:01:12.386Z,10.37
2017-09-19T18:03:39.591Z,10.60
2017-09-19T18:06:06.120Z,11.70
2017-09-19T18:08:32.772Z,8.23
2017-09-19T18:10:59.456Z,7.50
2017-09-19T18:13:25.920Z,8.80
2017-09-19T18:15:52.413Z,11.17
2017-09-19T18:18:19.642Z,8.80
2017-09-19T18:20:47.087Z,8.30
2017-09-19T18:23:13.514Z,8.73
2017-09-19T18:25:39.972Z,10.53
2017-09-19T18:28:07.231Z,20.80
2017-09-19T18:30:34.439Z,18.80
2017-09-19T18:33:00.973Z,18.90
2017-09-19T18:35:28.664Z,13.47
2017-09-19T18:37:55.144Z,10.87
2017-09-19T18:40:21.597Z,10.53
2017-09-19T18:42:48.104Z,13.33
2017-09-19T18:45:14.659Z,12.20
2017-09-19T18:47:41.235Z,17.30
2017-09-19T18:50:08.526Z,12.23
2017-09-19T18:52:34.966Z,11.00
2017-09-19T18:55:01.455Z,10.27
2017-09-19T18:57:27.919Z,11.33
2017-09-19T18:59:54.420Z,11.47
2017-09-19T19:02:20.897Z,12.43
2017-09-19T19:04:47.610Z,14.27
2017-09-19T19:07:14.836Z,12.63
2017-09-19T19:09:41.968Z,12.00
2017-09-19T19:12:08.461Z,13.60
2017-09-19T19:14:34.966Z,12.07
2017-09-19T19:19:51.820Z,12.30
2017-09-19T19:22:18.465Z,13.13
2017-09-19T19:24:44.997Z,13.20
2017-09-19T19:27:11.508Z,12.63
2017-09-19T19:29:38.935Z,13.00
2017-09-19T19:32:06.171Z,13.10
2017-09-19T19:34:32.820Z,12.50
2017-09-19T19:36:59.329Z,13.23
2017-09-19T19:39:25.987Z,12.33
2017-09-19T19:41:52.466Z,12.70
2017-09-19T19:44:19.687Z,12.60
2017-09-19T19:46:46.392Z,12.50
2017-09-19T19:49:12.975Z,12.33
2017-09-19T19:51:39.574Z,12.23
2017-09-19T19:54:06.060Z,11.70
2017-09-19T19:56:33.264Z,11.27
2017-09-19T19:58:59.781Z,13.13
2017-09-19T20:01:26.240Z,11.80
2017-09-19T20:03:52.760Z,12.60
2017-09-19T20:06:19.232Z,10.87
2017-09-19T20:08:45.695Z,12.63
2017-09-19T20:11:12.194Z,12.73
2017-09-19T20:13:38.678Z,11.33
2017-09-19T20:16:05.217Z,12.60
2017-09-19T20:18:31.735Z,13.83
2017-09-19T20:20:58.346Z,12.00
2017-09-19T20:23:25.566Z,14.03
2017-09-19T20:25:51.997Z,13.63
2017-09-19T20:28:18.491Z,12.87
2017-09-19T20:30:44.936Z,13.40
2017-09-19T20:33:11.452Z,13.30
2017-09-19T20:35:37.970Z,13.17
2017-09-19T20:38:05.205Z,12.83
2017-09-19T20:40:31.697Z,13.13
2017-09-19T20:42:58.136Z,12.80
2017-09-19T20:45:24.708Z,12.80
2017-09-19T20:47:51.153Z,12.13
2017-09-19T20:50:18.344Z,12.93
2017-09-19T20:52:44.892Z,12.23
2017-09-19T20:55:11.315Z,12.70
2017-09-19T20:57:37.780Z,12.53
2017-09-19T21:00:04.397Z,14.17
2017-09-19T21:02:30.872Z,13.90
2017-09-19T21:05:04.254Z,12.70
2017-09-19T21:07:36.948Z,14.53
2017-09-19T21:10:10.191Z,13.90
2017-09-19T21:12:42.783Z,13.70
2017-09-19T21:15:15.415Z,13.37
2017-09-19T21:17:47.912Z,12.37
2017-09-19T21:20:14.275Z,12.80
2017-09-19T21:22:40.778Z,11.47
2017-09-19T21:25:07.229Z,12.17
2017-09-19T21:27:33.699Z,12.13
2017-09-19T21:30:00.877Z,12.20
2017-09-19T21:32:27.315Z,12.00
2017-09-19T21:34:53.830Z,11.53
2017-09-19T21:37:21.007Z,12.77
2017-09-19T21:39:47.435Z,12.80
2017-09-19T21:42:13.842Z,14.03
2017-09-19T21:44:41.106Z,12.57
2017-09-19T21:47:07.483Z,13.60
2017-09-19T21:49:33.999Z,14.07
2017-09-19T21:52:00.456Z,15.13
2017-09-19T21:54:26.936Z,15.00
2017-09-19T21:56:53.454Z,12.90
2017-09-19T21:59:20.803Z,14.20
2017-09-19T22:01:47.276Z,13.80
2017-09-19T22:04:13.795Z,13.40
2017-09-19T22:06:40.210Z,15.77
2017-09-19T22:09:07.415Z,14.70
2017-09-19T22:11:33.871Z,14.93
2017-09-19T22:14:00.342Z,15.10
2017-09-19T22:16:26.816Z,14.90
2017-09-19T22:18:53.286Z,14.90
2017-09-19T22:21:19.862Z,15.93
2017-09-19T22:23:46.326Z,15.30
2017-09-19T22:26:12.815Z,14.93
2017-09-19T22:28:39.235Z,14.43
2017-09-19T22:31:06.406Z,15.43
2017-09-19T22:33:32.860Z,14.27
2017-09-19T22:35:59.299Z,14.03
2017-09-19T22:38:25.818Z,15.60
2017-09-19T22:40:52.376Z,14.90
2017-09-19T22:43:18.864Z,16.17
2017-09-19T22:45:45.317Z,16.40
2017-09-19T22:48:11.763Z,16.03
2017-09-19T22:50:38.291Z,18.13
2017-09-19T22:53:04.717Z,18.87
2017-09-19T22:55:31.183Z,15.93
2017-09-19T22:57:57.609Z,18.90
2017-09-19T23:00:24.064Z,18.07
2017-09-19T23:02:50.515Z,17.70
2017-09-19T23:05:17.702Z,14.20
2017-09-19T23:07:44.139Z,19.47
2017-09-19T23:10:10.582Z,18.70
2017-09-19T23:12:37.110Z,18.67
2017-09-19T23:15:03.603Z,18.50
2017-09-19T23:17:30.844Z,19.00
2017-09-19T23:19:58.007Z,16.87
2017-09-19T23:22:24.491Z,19.87
2017-09-19T23:24:50.928Z,18.60
2017-09-19T23:27:17.402Z,17.63
2017-09-19T23:29:44.594Z,19.57
2017-09-19T23:32:11.101Z,19.43
2017-09-19T23:34:37.547Z,17.00
2017-09-19T23:37:03.992Z,20.93
2017-09-19T23:39:30.444Z,19.83
2017-09-19T23:41:56.966Z,20.87
2017-09-19T23:44:23.412Z,18.73
2017-09-19T23:46:49.914Z,19.27
2017-09-19T23:49:16.391Z,18.60
2017-09-19T23:51:42.838Z,20.97
2017-09-19T23:54:10.065Z,21.07
2017-09-19T23:56:37.311Z,18.80
2017-09-19T23:59:03.711Z,17.63
